sensor_id;sensor_type;location;lat;lon;timestamp;pressure;altitude;pressure_sealevel;temperature;humidity
2397;BME280;1209;48.410;9.054;2023-01-31T00:00:51;97136.69;;;2.38;100.00
2397;BME280;1209;48.410;9.054;2023-01-31T00:03:16;97139.28;;;2.38;100.00
2397;BME280;1209;48.410;9.054;2023-01-31T00:05:41;97139.28;;;2.38;100.00
2397;BME280;1209;48.410;9.054;2023-01-31T00:08:07;97143.59;;;2.38;100.00
2397;BME280;1209;48.410;9.054;2023-01-31T00:10:33;97135.66;;;2.41;100.00
2397;BME280;1209;48.410;9.054;2023-01-31T00:12:59;97138.25;;;2.41;100.00
2397;BME280;1209;48.410;9.054;2023-01-31T00:15:24;97141.53;;;2.43;100.00
2397;BME280;1209;48.410;9.054;2023-01-31T00:17:50;97139.19;;;2.40;100.00
2397;BME280;1209;48.410;9.054;2023-01-31T00:20:15;97129.78;;;2.39;100.00
2397;BME280;1209;48.410;9.054;2023-01-31T00:22:41;97130.19;;;2.33;100.00
2397;BME280;1209;48.410;9.054;2023-01-31T00:25:07;97133.78;;;2.30;100.00
2397;BME280;1209;48.410;9.054;2023-01-31T00:27:33;97128.53;;;2.32;100.00
2397;BME280;1209;48.410;9.054;2023-01-31T00:30:00;97129.97;;;2.23;100.00
2397;BME280;1209;48.410;9.054;2023-01-31T00:32:25;97134.59;;;2.31;100.00
2397;BME280;1209;48.410;9.054;2023-01-31T00:34:54;97131.63;;;2.24;100.00
2397;BME280;1209;48.410;9.054;2023-01-31T00:37:20;97130.59;;;2.14;100.00
2397;BME280;1209;48.410;9.054;2023-01-31T00:39:46;97131.94;;;2.19;100.00
2397;BME280;1209;48.410;9.054;2023-01-31T00:42:12;97128.72;;;2.16;100.00
2397;BME280;1209;48.410;9.054;2023-01-31T00:44:39;97127.06;;;2.15;100.00
2397;BME280;1209;48.410;9.054;2023-01-31T00:47:04;97132.44;;;2.12;100.00
2397;BME280;1209;48.410;9.054;2023-01-31T00:49:29;97127.59;;;2.07;100.00
2397;BME280;1209;48.410;9.054;2023-01-31T00:51:55;97128.09;;;2.00;100.00
2397;BME280;1209;48.410;9.054;2023-01-31T00:54:20;97131.06;;;1.94;100.00
2397;BME280;1209;48.410;9.054;2023-01-31T00:56:46;97130.16;;;1.95;100.00
2397;BME280;1209;48.410;9.054;2023-01-31T00:59:13;97119.13;;;1.93;100.00
2397;BME280;1209;48.410;9.054;2023-01-31T01:01:38;97125.81;;;1.95;100.00
2397;BME280;1209;48.410;9.054;2023-01-31T01:04:04;97129.31;;;1.94;100.00
2397;BME280;1209;48.410;9.054;2023-01-31T01:06:30;97129.78;;;1.86;100.00
2397;BME280;1209;48.410;9.054;2023-01-31T01:08:56;97130.00;;;1.83;100.00
2397;BME280;1209;48.410;9.054;2023-01-31T01:11:28;97126.50;;;1.84;100.00
2397;BME280;1209;48.410;9.054;2023-01-31T01:13:56;97119.69;;;1.83;100.00
2397;BME280;1209;48.410;9.054;2023-01-31T01:16:31;97119.25;;;1.77;100.00
2397;BME280;1209;48.410;9.054;2023-01-31T01:18:56;97120.59;;;1.70;100.00
2397;BME280;1209;48.410;9.054;2023-01-31T01:21:25;97123.69;;;1.75;100.00
2397;BME280;1209;48.410;9.054;2023-01-31T01:23:51;97117.00;;;1.72;100.00
2397;BME280;1209;48.410;9.054;2023-01-31T01:26:26;97112.56;;;1.74;100.00
2397;BME280;1209;48.410;9.054;2023-01-31T01:28:53;97108.75;;;1.67;100.00
2397;BME280;1209;48.410;9.054;2023-01-31T01:31:19;97111.31;;;1.67;100.00
2397;BME280;1209;48.410;9.054;2023-01-31T01:33:46;97122.44;;;1.68;100.00
2397;BME280;1209;48.410;9.054;2023-01-31T01:36:13;97119.31;;;1.50;100.00
2397;BME280;1209;48.410;9.054;2023-01-31T01:38:42;97120.47;;;1.58;100.00
2397;BME280;1209;48.410;9.054;2023-01-31T01:41:09;97118.63;;;1.61;100.00
2397;BME280;1209;48.410;9.054;2023-01-31T01:43:39;97115.41;;;1.57;100.00
2397;BME280;1209;48.410;9.054;2023-01-31T01:46:05;97118.19;;;1.54;100.00
2397;BME280;1209;48.410;9.054;2023-01-31T01:48:32;97109.44;;;1.56;100.00
2397;BME280;1209;48.410;9.054;2023-01-31T01:50:58;97112.50;;;1.49;100.00
2397;BME280;1209;48.410;9.054;2023-01-31T01:53:25;97115.38;;;1.44;100.00
2397;BME280;1209;48.410;9.054;2023-01-31T01:56:07;97119.69;;;1.44;100.00
2397;BME280;1209;48.410;9.054;2023-01-31T01:58:47;97107.66;;;1.44;100.00
2397;BME280;1209;48.410;9.054;2023-01-31T02:01:17;97115.00;;;1.36;100.00
2397;BME280;1209;48.410;9.054;2023-01-31T02:03:44;97115.38;;;1.30;100.00
2397;BME280;1209;48.410;9.054;2023-01-31T02:06:10;97124.47;;;1.36;100.00
2397;BME280;1209;48.410;9.054;2023-01-31T02:08:38;97123.22;;;1.29;100.00
2397;BME280;1209;48.410;9.054;2023-01-31T02:11:12;97129.38;;;1.26;100.00
2397;BME280;1209;48.410;9.054;2023-01-31T02:13:40;97119.19;;;1.24;100.00
2397;BME280;1209;48.410;9.054;2023-01-31T02:16:06;97122.66;;;1.23;100.00
2397;BME280;1209;48.410;9.054;2023-01-31T02:18:31;97131.41;;;1.21;100.00
2397;BME280;1209;48.410;9.054;2023-01-31T02:24:18;97130.97;;;1.14;100.00
2397;BME280;1209;48.410;9.054;2023-01-31T02:27:17;97133.72;;;1.11;100.00
2397;BME280;1209;48.410;9.054;2023-01-31T02:29:58;97142.56;;;1.07;100.00
2397;BME280;1209;48.410;9.054;2023-01-31T02:32:47;97128.72;;;0.96;100.00
2397;BME280;1209;48.410;9.054;2023-01-31T02:35:31;97134.59;;;0.98;100.00
2397;BME280;1209;48.410;9.054;2023-01-31T02:38:38;97134.59;;;0.98;100.00
2397;BME280;1209;48.410;9.054;2023-01-31T02:41:15;97131.09;;;0.99;100.00
2397;BME280;1209;48.410;9.054;2023-01-31T02:44:04;97129.69;;;1.07;100.00
2397;BME280;1209;48.410;9.054;2023-01-31T02:49:38;97138.81;;;0.99;100.00
2397;BME280;1209;48.410;9.054;2023-01-31T02:57:51;97153.03;;;1.04;100.00
2397;BME280;1209;48.410;9.054;2023-01-31T03:00:18;97143.03;;;1.00;100.00
2397;BME280;1209;48.410;9.054;2023-01-31T03:02:45;97152.00;;;1.07;100.00
2397;BME280;1209;48.410;9.054;2023-01-31T03:05:14;97144.41;;;1.05;100.00
2397;BME280;1209;48.410;9.054;2023-01-31T03:07:41;97148.91;;;1.02;100.00
2397;BME280;1209;48.410;9.054;2023-01-31T03:10:22;97153.13;;;1.03;100.00
2397;BME280;1209;48.410;9.054;2023-01-31T03:21:45;97165.59;;;1.09;100.00
2397;BME280;1209;48.410;9.054;2023-01-31T03:24:14;97168.72;;;1.14;100.00
2397;BME280;1209;48.410;9.054;2023-01-31T03:26:41;97160.91;;;1.15;100.00
2397;BME280;1209;48.410;9.054;2023-01-31T03:29:08;97158.25;;;1.17;100.00
2397;BME280;1209;48.410;9.054;2023-01-31T03:31:38;97162.66;;;1.15;100.00
2397;BME280;1209;48.410;9.054;2023-01-31T03:34:07;97165.84;;;1.18;100.00
2397;BME280;1209;48.410;9.054;2023-01-31T03:36:53;97165.47;;;1.24;100.00
2397;BME280;1209;48.410;9.054;2023-01-31T03:42:07;97156.66;;;1.29;100.00
2397;BME280;1209;48.410;9.054;2023-01-31T03:47:35;97157.28;;;1.32;100.00
2397;BME280;1209;48.410;9.054;2023-01-31T03:50:11;97168.94;;;1.38;100.00
2397;BME280;1209;48.410;9.054;2023-01-31T03:52:45;97167.28;;;1.37;100.00
2397;BME280;1209;48.410;9.054;2023-01-31T03:55:22;97176.66;;;1.38;100.00
2397;BME280;1209;48.410;9.054;2023-01-31T03:57:51;97168.19;;;1.36;100.00
2397;BME280;1209;48.410;9.054;2023-01-31T04:00:19;97169.56;;;1.41;100.00
2397;BME280;1209;48.410;9.054;2023-01-31T04:02:49;97168.75;;;1.41;100.00
2397;BME280;1209;48.410;9.054;2023-01-31T04:05:20;97163.44;;;1.44;100.00
2397;BME280;1209;48.410;9.054;2023-01-31T04:07:46;97172.63;;;1.48;100.00
2397;BME280;1209;48.410;9.054;2023-01-31T04:10:14;97169.50;;;1.43;100.00
2397;BME280;1209;48.410;9.054;2023-01-31T04:12:41;97179.59;;;1.46;100.00
2397;BME280;1209;48.410;9.054;2023-01-31T04:15:07;97169.94;;;1.49;100.00
2397;BME280;1209;48.410;9.054;2023-01-31T04:17:33;97171.06;;;1.45;100.00
2397;BME280;1209;48.410;9.054;2023-01-31T04:19:58;97176.16;;;1.60;100.00
2397;BME280;1209;48.410;9.054;2023-01-31T04:22:24;97179.25;;;1.65;100.00
2397;BME280;1209;48.410;9.054;2023-01-31T04:24:50;97176.25;;;1.58;100.00
2397;BME280;1209;48.410;9.054;2023-01-31T04:27:16;97174.94;;;1.65;100.00
2397;BME280;1209;48.410;9.054;2023-01-31T04:29:42;97178.44;;;1.64;100.00
2397;BME280;1209;48.410;9.054;2023-01-31T04:32:07;97177.03;;;1.73;100.00
2397;BME280;1209;48.410;9.054;2023-01-31T04:34:33;97180.72;;;1.69;100.00
2397;BME280;1209;48.410;9.054;2023-01-31T04:36:58;97176.19;;;1.72;100.00
2397;BME280;1209;48.410;9.054;2023-01-31T04:39:24;97172.81;;;1.72;100.00
2397;BME280;1209;48.410;9.054;2023-01-31T04:41:49;97183.53;;;1.78;100.00
2397;BME280;1209;48.410;9.054;2023-01-31T04:44:14;97179.09;;;1.80;100.00
2397;BME280;1209;48.410;9.054;2023-01-31T04:46:41;97185.72;;;1.84;100.00
2397;BME280;1209;48.410;9.054;2023-01-31T04:49:07;97187.56;;;1.82;100.00
2397;BME280;1209;48.410;9.054;2023-01-31T04:51:32;97182.59;;;1.79;100.00
2397;BME280;1209;48.410;9.054;2023-01-31T04:53:57;97179.63;;;1.85;100.00
2397;BME280;1209;48.410;9.054;2023-01-31T04:56:23;97179.38;;;1.90;100.00
2397;BME280;1209;48.410;9.054;2023-01-31T04:58:48;97186.69;;;1.96;100.00
2397;BME280;1209;48.410;9.054;2023-01-31T05:01:13;97188.25;;;1.99;100.00
2397;BME280;1209;48.410;9.054;2023-01-31T05:03:39;97189.09;;;1.99;100.00
2397;BME280;1209;48.410;9.054;2023-01-31T05:06:05;97181.44;;;1.98;100.00
2397;BME280;1209;48.410;9.054;2023-01-31T05:08:31;97178.78;;;1.99;100.00
2397;BME280;1209;48.410;9.054;2023-01-31T05:11:00;97182.19;;;2.00;100.00
2397;BME280;1209;48.410;9.054;2023-01-31T05:13:27;97187.13;;;2.03;100.00
2397;BME280;1209;48.410;9.054;2023-01-31T05:15:54;97183.09;;;1.99;100.00
2397;BME280;1209;48.410;9.054;2023-01-31T05:18:23;97190.22;;;2.08;100.00
2397;BME280;1209;48.410;9.054;2023-01-31T05:20:48;97195.78;;;2.02;100.00
2397;BME280;1209;48.410;9.054;2023-01-31T05:23:15;97189.31;;;2.09;100.00
2397;BME280;1209;48.410;9.054;2023-01-31T05:25:43;97185.19;;;2.06;100.00
2397;BME280;1209;48.410;9.054;2023-01-31T05:28:09;97187.66;;;2.08;100.00
2397;BME280;1209;48.410;9.054;2023-01-31T05:30:35;97181.56;;;2.09;100.00
2397;BME280;1209;48.410;9.054;2023-01-31T05:33:01;97185.81;;;2.10;100.00
2397;BME280;1209;48.410;9.054;2023-01-31T05:35:26;97184.78;;;2.12;100.00
2397;BME280;1209;48.410;9.054;2023-01-31T05:37:55;97187.97;;;2.16;100.00
2397;BME280;1209;48.410;9.054;2023-01-31T05:40:21;97186.13;;;2.18;100.00
2397;BME280;1209;48.410;9.054;2023-01-31T05:42:57;97187.97;;;2.16;100.00
2397;BME280;1209;48.410;9.054;2023-01-31T05:45:24;97200.47;;;2.22;100.00
2397;BME280;1209;48.410;9.054;2023-01-31T05:47:50;97193.25;;;2.27;100.00
2397;BME280;1209;48.410;9.054;2023-01-31T05:50:16;97198.41;;;2.27;100.00
2397;BME280;1209;48.410;9.054;2023-01-31T05:52:42;97193.66;;;2.21;100.00
2397;BME280;1209;48.410;9.054;2023-01-31T05:55:08;97194.16;;;2.13;100.00
2397;BME280;1209;48.410;9.054;2023-01-31T05:57:33;97186.03;;;2.19;100.00
2397;BME280;1209;48.410;9.054;2023-01-31T05:59:59;97194.69;;;2.18;100.00
2397;BME280;1209;48.410;9.054;2023-01-31T06:02:25;97202.50;;;2.17;100.00
2397;BME280;1209;48.410;9.054;2023-01-31T06:04:50;97213.13;;;2.25;100.00
2397;BME280;1209;48.410;9.054;2023-01-31T06:07:15;97200.97;;;2.27;100.00
2397;BME280;1209;48.410;9.054;2023-01-31T06:09:41;97199.94;;;2.30;100.00
2397;BME280;1209;48.410;9.054;2023-01-31T06:12:11;97208.31;;;2.33;100.00
2397;BME280;1209;48.410;9.054;2023-01-31T06:14:38;97200.31;;;2.38;100.00
2397;BME280;1209;48.410;9.054;2023-01-31T06:17:04;97192.38;;;2.41;100.00
2397;BME280;1209;48.410;9.054;2023-01-31T06:19:29;97198.00;;;2.33;100.00
2397;BME280;1209;48.410;9.054;2023-01-31T06:21:54;97194.91;;;2.28;100.00
2397;BME280;1209;48.410;9.054;2023-01-31T06:24:20;97199.03;;;2.31;100.00
2397;BME280;1209;48.410;9.054;2023-01-31T06:26:46;97208.09;;;2.36;100.00
2397;BME280;1209;48.410;9.054;2023-01-31T06:29:11;97212.63;;;2.33;100.00
2397;BME280;1209;48.410;9.054;2023-01-31T06:31:36;97215.31;;;2.31;100.00
2397;BME280;1209;48.410;9.054;2023-01-31T06:34:02;97210.88;;;2.33;100.00
2397;BME280;1209;48.410;9.054;2023-01-31T06:36:30;97207.47;;;2.33;100.00
2397;BME280;1209;48.410;9.054;2023-01-31T06:38:55;97215.31;;;2.31;100.00
2397;BME280;1209;48.410;9.054;2023-01-31T06:41:21;97211.81;;;2.32;100.00
2397;BME280;1209;48.410;9.054;2023-01-31T06:43:47;97211.81;;;2.32;100.00
2397;BME280;1209;48.410;9.054;2023-01-31T06:46:13;97205.63;;;2.35;100.00
2397;BME280;1209;48.410;9.054;2023-01-31T06:48:38;97212.38;;;2.37;100.00
2397;BME280;1209;48.410;9.054;2023-01-31T06:51:04;97217.41;;;2.39;100.00
2397;BME280;1209;48.410;9.054;2023-01-31T06:53:29;97212.53;;;2.34;100.00
2397;BME280;1209;48.410;9.054;2023-01-31T06:55:54;97214.00;;;2.38;100.00
2397;BME280;1209;48.410;9.054;2023-01-31T06:58:20;97223.41;;;2.39;100.00
2397;BME280;1209;48.410;9.054;2023-01-31T07:00:45;97219.28;;;2.37;100.00
2397;BME280;1209;48.410;9.054;2023-01-31T07:03:10;97222.75;;;2.36;100.00
2397;BME280;1209;48.410;9.054;2023-01-31T07:05:36;97230.00;;;2.43;100.00
2397;BME280;1209;48.410;9.054;2023-01-31T07:08:02;97219.28;;;2.37;100.00
2397;BME280;1209;48.410;9.054;2023-01-31T07:10:27;97216.19;;;2.44;100.00
2397;BME280;1209;48.410;9.054;2023-01-31T07:12:52;97228.09;;;2.33;100.00
2397;BME280;1209;48.410;9.054;2023-01-31T07:15:18;97219.75;;;2.29;100.00
2397;BME280;1209;48.410;9.054;2023-01-31T07:17:43;97216.03;;;2.33;100.00
2397;BME280;1209;48.410;9.054;2023-01-31T07:20:09;97229.03;;;2.32;100.00
2397;BME280;1209;48.410;9.054;2023-01-31T07:22:35;97224.59;;;2.34;100.00
2397;BME280;1209;48.410;9.054;2023-01-31T07:25:00;97227.28;;;2.32;100.00
2397;BME280;1209;48.410;9.054;2023-01-31T07:27:25;97225.53;;;2.33;100.00
2397;BME280;1209;48.410;9.054;2023-01-31T07:29:51;97224.91;;;2.29;100.00
2397;BME280;1209;48.410;9.054;2023-01-31T07:32:16;97226.44;;;2.32;100.00
2397;BME280;1209;48.410;9.054;2023-01-31T07:34:42;97223.25;;;2.28;100.00
2397;BME280;1209;48.410;9.054;2023-01-31T07:37:07;97219.94;;;2.26;100.00
2397;BME280;1209;48.410;9.054;2023-01-31T07:39:32;97224.38;;;2.24;100.00
2397;BME280;1209;48.410;9.054;2023-01-31T07:41:57;97218.69;;;2.19;100.00
2397;BME280;1209;48.410;9.054;2023-01-31T07:44:24;97227.53;;;2.15;100.00
2397;BME280;1209;48.410;9.054;2023-01-31T07:46:49;97230.94;;;2.15;100.00
2397;BME280;1209;48.410;9.054;2023-01-31T07:49:16;97230.22;;;2.13;100.00
2397;BME280;1209;48.410;9.054;2023-01-31T07:51:41;97233.53;;;2.15;100.00
2397;BME280;1209;48.410;9.054;2023-01-31T07:54:09;97230.84;;;2.17;100.00
2397;BME280;1209;48.410;9.054;2023-01-31T07:56:35;97228.28;;;2.17;100.00
2397;BME280;1209;48.410;9.054;2023-01-31T07:59:00;97234.44;;;2.14;100.00
2397;BME280;1209;48.410;9.054;2023-01-31T08:01:26;97223.84;;;2.19;100.00
2397;BME280;1209;48.410;9.054;2023-01-31T08:04:12;97234.88;;;2.21;100.00
2397;BME280;1209;48.410;9.054;2023-01-31T08:06:40;97237.69;;;2.31;100.00
2397;BME280;1209;48.410;9.054;2023-01-31T08:09:05;97242.63;;;2.34;100.00
2397;BME280;1209;48.410;9.054;2023-01-31T08:11:30;97237.59;;;2.32;100.00
2397;BME280;1209;48.410;9.054;2023-01-31T08:13:56;97230.94;;;2.42;100.00
2397;BME280;1209;48.410;9.054;2023-01-31T08:16:21;97242.78;;;2.45;100.00
2397;BME280;1209;48.410;9.054;2023-01-31T08:18:47;97230.72;;;2.45;100.00
2397;BME280;1209;48.410;9.054;2023-01-31T08:21:13;97224.97;;;2.55;100.00
2397;BME280;1209;48.410;9.054;2023-01-31T08:23:39;97228.25;;;2.57;100.00
2397;BME280;1209;48.410;9.054;2023-01-31T08:26:12;97224.56;;;2.61;100.00
2397;BME280;1209;48.410;9.054;2023-01-31T08:28:38;97227.34;;;2.70;100.00
2397;BME280;1209;48.410;9.054;2023-01-31T08:31:05;97229.19;;;2.81;100.00
2397;BME280;1209;48.410;9.054;2023-01-31T08:33:31;97229.44;;;2.91;100.00
2397;BME280;1209;48.410;9.054;2023-01-31T08:35:57;97228.19;;;2.96;100.00
2397;BME280;1209;48.410;9.054;2023-01-31T08:38:22;97238.72;;;2.93;100.00
2397;BME280;1209;48.410;9.054;2023-01-31T08:40:48;97231.06;;;3.04;100.00
2397;BME280;1209;48.410;9.054;2023-01-31T08:43:14;97233.16;;;2.99;100.00
2397;BME280;1209;48.410;9.054;2023-01-31T08:45:39;97224.16;;;3.05;100.00
2397;BME280;1209;48.410;9.054;2023-01-31T08:48:05;97220.97;;;3.01;100.00
2397;BME280;1209;48.410;9.054;2023-01-31T08:50:31;97235.19;;;3.07;100.00
2397;BME280;1209;48.410;9.054;2023-01-31T08:53:02;97230.97;;;3.06;100.00
2397;BME280;1209;48.410;9.054;2023-01-31T08:55:29;97223.94;;;3.08;100.00
2397;BME280;1209;48.410;9.054;2023-01-31T08:57:54;97223.63;;;3.25;100.00
2397;BME280;1209;48.410;9.054;2023-01-31T09:00:20;97215.03;;;3.37;100.00
2397;BME280;1209;48.410;9.054;2023-01-31T09:02:57;97203.78;;;3.26;100.00
2397;BME280;1209;48.410;9.054;2023-01-31T09:05:23;97206.25;;;3.40;100.00
2397;BME280;1209;48.410;9.054;2023-01-31T09:07:49;97200.88;;;3.43;100.00
2397;BME280;1209;48.410;9.054;2023-01-31T09:10:16;97203.72;;;3.64;100.00
2397;BME280;1209;48.410;9.054;2023-01-31T09:12:41;97202.78;;;3.65;100.00
2397;BME280;1209;48.410;9.054;2023-01-31T09:15:07;97196.72;;;3.77;100.00
2397;BME280;1209;48.410;9.054;2023-01-31T09:17:32;97185.88;;;3.85;100.00
2397;BME280;1209;48.410;9.054;2023-01-31T09:19:57;97189.25;;;4.09;100.00
2397;BME280;1209;48.410;9.054;2023-01-31T09:22:23;97195.47;;;4.30;100.00
2397;BME280;1209;48.410;9.054;2023-01-31T09:24:48;97191.84;;;4.09;100.00
2397;BME280;1209;48.410;9.054;2023-01-31T09:27:14;97194.25;;;4.23;100.00
2397;BME280;1209;48.410;9.054;2023-01-31T09:29:39;97196.78;;;4.36;100.00
2397;BME280;1209;48.410;9.054;2023-01-31T09:32:05;97195.13;;;4.35;100.00
2397;BME280;1209;48.410;9.054;2023-01-31T09:34:31;97200.75;;;4.29;100.00
2397;BME280;1209;48.410;9.054;2023-01-31T09:36:56;97196.81;;;4.23;100.00
2397;BME280;1209;48.410;9.054;2023-01-31T09:39:23;97198.06;;;4.30;100.00
2397;BME280;1209;48.410;9.054;2023-01-31T09:41:55;97222.47;;;4.26;100.00
2397;BME280;1209;48.410;9.054;2023-01-31T09:44:24;97207.28;;;4.22;100.00
2397;BME280;1209;48.410;9.054;2023-01-31T09:46:58;97216.97;;;4.31;100.00
2397;BME280;1209;48.410;9.054;2023-01-31T09:49:30;97212.28;;;4.12;100.00
2397;BME280;1209;48.410;9.054;2023-01-31T09:52:00;97219.13;;;4.13;100.00
2397;BME280;1209;48.410;9.054;2023-01-31T09:54:30;97215.59;;;4.38;100.00
2397;BME280;1209;48.410;9.054;2023-01-31T09:57:25;97215.44;;;4.28;100.00
2397;BME280;1209;48.410;9.054;2023-01-31T10:00:10;97217.91;;;4.30;100.00
2397;BME280;1209;48.410;9.054;2023-01-31T10:08:04;97201.03;;;4.13;100.00
2397;BME280;1209;48.410;9.054;2023-01-31T10:10:53;97203.44;;;4.27;100.00
2397;BME280;1209;48.410;9.054;2023-01-31T10:16:36;97181.56;;;4.66;100.00
2397;BME280;1209;48.410;9.054;2023-01-31T10:19:07;97178.00;;;4.56;100.00
2397;BME280;1209;48.410;9.054;2023-01-31T10:21:48;97175.31;;;4.58;100.00
2397;BME280;1209;48.410;9.054;2023-01-31T10:24:27;97188.00;;;4.50;100.00
2397;BME280;1209;48.410;9.054;2023-01-31T10:26:59;97195.50;;;4.41;100.00
2397;BME280;1209;48.410;9.054;2023-01-31T10:29:52;97195.28;;;4.45;100.00
2397;BME280;1209;48.410;9.054;2023-01-31T10:32:39;97189.38;;;4.42;100.00
2397;BME280;1209;48.410;9.054;2023-01-31T10:35:22;97190.13;;;4.56;100.00
2397;BME280;1209;48.410;9.054;2023-01-31T10:37:56;97196.94;;;4.57;100.00
2397;BME280;1209;48.410;9.054;2023-01-31T10:40:33;97197.75;;;4.57;100.00
2397;BME280;1209;48.410;9.054;2023-01-31T10:43:07;97201.50;;;4.53;100.00
2397;BME280;1209;48.410;9.054;2023-01-31T10:45:33;97193.41;;;4.58;100.00
2397;BME280;1209;48.410;9.054;2023-01-31T10:48:17;97196.91;;;4.46;100.00
2397;BME280;1209;48.410;9.054;2023-01-31T10:56:56;97184.00;;;4.57;100.00
2397;BME280;1209;48.410;9.054;2023-01-31T10:59:24;97172.31;;;4.75;100.00
2397;BME280;1209;48.410;9.054;2023-01-31T11:01:50;97169.22;;;4.70;100.00
2397;BME280;1209;48.410;9.054;2023-01-31T11:06:49;97156.53;;;5.00;100.00
2397;BME280;1209;48.410;9.054;2023-01-31T11:09:15;97147.56;;;5.38;100.00
2397;BME280;1209;48.410;9.054;2023-01-31T11:12:01;97146.06;;;5.67;100.00
2397;BME280;1209;48.410;9.054;2023-01-31T11:14:27;97160.66;;;5.91;100.00
2397;BME280;1209;48.410;9.054;2023-01-31T11:16:57;97159.16;;;5.66;100.00
2397;BME280;1209;48.410;9.054;2023-01-31T11:19:36;97163.22;;;5.48;100.00
2397;BME280;1209;48.410;9.054;2023-01-31T11:22:04;97160.75;;;5.46;100.00
2397;BME280;1209;48.410;9.054;2023-01-31T11:24:32;97158.59;;;5.51;100.00
2397;BME280;1209;48.410;9.054;2023-01-31T11:27:05;97166.13;;;5.54;100.00
2397;BME280;1209;48.410;9.054;2023-01-31T11:29:35;97153.75;;;5.69;100.00
2397;BME280;1209;48.410;9.054;2023-01-31T11:32:04;97142.31;;;5.72;100.00
2397;BME280;1209;48.410;9.054;2023-01-31T11:34:31;97142.16;;;5.84;100.00
2397;BME280;1209;48.410;9.054;2023-01-31T11:37:16;97141.91;;;5.87;100.00
2397;BME280;1209;48.410;9.054;2023-01-31T11:39:54;97151.16;;;5.69;100.00
2397;BME280;1209;48.410;9.054;2023-01-31T11:42:19;97162.78;;;5.86;100.00
2397;BME280;1209;48.410;9.054;2023-01-31T11:47:42;97163.88;;;5.61;100.00
2397;BME280;1209;48.410;9.054;2023-01-31T11:50:35;97161.22;;;5.40;100.00
2397;BME280;1209;48.410;9.054;2023-01-31T11:53:03;97146.66;;;4.94;100.00
2397;BME280;1209;48.410;9.054;2023-01-31T11:55:38;97145.94;;;5.15;100.00
2397;BME280;1209;48.410;9.054;2023-01-31T11:58:12;97141.69;;;5.36;100.00
2397;BME280;1209;48.410;9.054;2023-01-31T12:00:50;97130.25;;;5.38;100.00
2397;BME280;1209;48.410;9.054;2023-01-31T12:03:18;97116.75;;;5.35;100.00
2397;BME280;1209;48.410;9.054;2023-01-31T12:05:49;97119.00;;;4.95;100.00
2397;BME280;1209;48.410;9.054;2023-01-31T12:08:34;97108.88;;;5.14;100.00
2397;BME280;1209;48.410;9.054;2023-01-31T12:13:53;97091.34;;;5.06;100.00
2397;BME280;1209;48.410;9.054;2023-01-31T12:16:25;97092.97;;;5.19;100.00
2397;BME280;1209;48.410;9.054;2023-01-31T12:21:50;97101.69;;;5.18;100.00
2397;BME280;1209;48.410;9.054;2023-01-31T12:24:23;97101.56;;;5.30;100.00
2397;BME280;1209;48.410;9.054;2023-01-31T12:26:54;97096.88;;;5.24;100.00
2397;BME280;1209;48.410;9.054;2023-01-31T12:38:05;97079.28;;;5.39;100.00
2397;BME280;1209;48.410;9.054;2023-01-31T12:40:48;97075.34;;;5.24;100.00
2397;BME280;1209;48.410;9.054;2023-01-31T12:46:22;97058.75;;;5.26;100.00
2397;BME280;1209;48.410;9.054;2023-01-31T12:49:14;97065.44;;;5.18;100.00
2397;BME280;1209;48.410;9.054;2023-01-31T12:51:55;97057.34;;;5.22;100.00
2397;BME280;1209;48.410;9.054;2023-01-31T12:54:43;97054.22;;;5.40;100.00
2397;BME280;1209;48.410;9.054;2023-01-31T13:00:22;97042.78;;;5.42;100.00
2397;BME280;1209;48.410;9.054;2023-01-31T13:05:40;97030.75;;;5.20;100.00
2397;BME280;1209;48.410;9.054;2023-01-31T13:08:29;97023.19;;;5.17;100.00
2397;BME280;1209;48.410;9.054;2023-01-31T13:11:08;97026.28;;;5.11;100.00
2397;BME280;1209;48.410;9.054;2023-01-31T13:16:40;97010.94;;;4.87;100.00
2397;BME280;1209;48.410;9.054;2023-01-31T13:20:01;97031.53;;;4.78;100.00
2397;BME280;1209;48.410;9.054;2023-01-31T13:22:02;97045.41;;;4.65;100.00
2397;BME280;1209;48.410;9.054;2023-01-31T13:24:39;97038.59;;;4.76;100.00
2397;BME280;1209;48.410;9.054;2023-01-31T13:29:56;97026.00;;;4.82;100.00
2397;BME280;1209;48.410;9.054;2023-01-31T13:32:32;97024.00;;;4.63;100.00
2397;BME280;1209;48.410;9.054;2023-01-31T13:35:05;97026.34;;;4.55;100.00
2397;BME280;1209;48.410;9.054;2023-01-31T13:37:38;97005.34;;;4.37;100.00
2397;BME280;1209;48.410;9.054;2023-01-31T13:40:21;97002.03;;;4.35;100.00
2397;BME280;1209;48.410;9.054;2023-01-31T13:42:49;96984.41;;;4.40;100.00
2397;BME280;1209;48.410;9.054;2023-01-31T13:45:37;96998.28;;;4.28;100.00
2397;BME280;1209;48.410;9.054;2023-01-31T13:49:02;96998.88;;;4.32;100.00
2397;BME280;1209;48.410;9.054;2023-01-31T13:51:24;96985.72;;;4.35;100.00
2397;BME280;1209;48.410;9.054;2023-01-31T13:53:59;96977.09;;;4.23;100.00
2397;BME280;1209;48.410;9.054;2023-01-31T13:56:30;96976.66;;;4.29;100.00
2397;BME280;1209;48.410;9.054;2023-01-31T13:58:57;96969.16;;;4.26;100.00
2397;BME280;1209;48.410;9.054;2023-01-31T14:01:28;96949.16;;;4.17;100.00
2397;BME280;1209;48.410;9.054;2023-01-31T14:09:30;96984.63;;;4.15;100.00
2397;BME280;1209;48.410;9.054;2023-01-31T14:22:22;97007.88;;;4.15;100.00
2397;BME280;1209;48.410;9.054;2023-01-31T14:29:48;97035.13;;;4.08;100.00
2397;BME280;1209;48.410;9.054;2023-01-31T14:40:14;97042.66;;;4.00;100.00
2397;BME280;1209;48.410;9.054;2023-01-31T14:45:32;97023.38;;;4.04;100.00
2397;BME280;1209;48.410;9.054;2023-01-31T14:48:12;97018.22;;;3.93;100.00
2397;BME280;1209;48.410;9.054;2023-01-31T14:53:26;96992.59;;;3.78;100.00
2397;BME280;1209;48.410;9.054;2023-01-31T14:58:42;96997.53;;;3.82;100.00
2397;BME280;1209;48.410;9.054;2023-01-31T15:01:09;96991.03;;;3.76;100.00
2397;BME280;1209;48.410;9.054;2023-01-31T15:03:37;96994.13;;;3.81;100.00
2397;BME280;1209;48.410;9.054;2023-01-31T15:06:14;96994.13;;;3.81;100.00
2397;BME280;1209;48.410;9.054;2023-01-31T15:08:47;96997.78;;;3.90;100.00
2397;BME280;1209;48.410;9.054;2023-01-31T15:11:43;96969.59;;;3.87;100.00
2397;BME280;1209;48.410;9.054;2023-01-31T15:16:53;96959.63;;;3.93;100.00
2397;BME280;1209;48.410;9.054;2023-01-31T15:19:22;96950.69;;;3.97;100.00
2397;BME280;1209;48.410;9.054;2023-01-31T15:21:54;96955.50;;;3.91;100.00
2397;BME280;1209;48.410;9.054;2023-01-31T15:24:39;96950.56;;;3.99;100.00
2397;BME280;1209;48.410;9.054;2023-01-31T15:27:16;96957.38;;;4.00;100.00
2397;BME280;1209;48.410;9.054;2023-01-31T15:32:34;96955.75;;;3.99;100.00
2397;BME280;1209;48.410;9.054;2023-01-31T15:35:29;96962.66;;;3.98;100.00